createdAt,value
2019-02-08T00:01:38.621Z,12.50
2019-02-08T00:04:07.666Z,11.75
2019-02-08T00:06:36.621Z,11.75
2019-02-08T00:09:09.061Z,12.03
2019-02-08T00:11:38.281Z,11.22
2019-02-08T00:14:07.741Z,11.73
2019-02-08T00:16:37.589Z,10.93
2019-02-08T00:19:06.741Z,11.20
2019-02-08T00:21:36.090Z,10.85
2019-02-08T00:24:07.815Z,12.50
2019-02-08T00:26:36.800Z,11.70
2019-02-08T00:29:06.597Z,11.20
2019-02-08T00:31:35.790Z,12.50
2019-02-08T00:34:05.219Z,12.35
2019-02-08T00:36:34.164Z,12.00
2019-02-08T00:39:03.905Z,11.55
2019-02-08T00:41:32.883Z,12.15
2019-02-08T00:44:01.770Z,11.38
2019-02-08T00:46:30.750Z,12.30
2019-02-08T00:48:59.902Z,11.93
2019-02-08T00:51:28.918Z,13.03
2019-02-08T00:53:57.892Z,11.38
2019-02-08T00:56:27.075Z,12.68
2019-02-08T00:58:56.022Z,14.20
2019-02-08T01:01:25.332Z,12.30
2019-02-08T01:03:54.223Z,11.95
2019-02-08T01:06:23.300Z,12.13
2019-02-08T01:08:52.642Z,12.50
2019-02-08T01:11:21.806Z,12.90
2019-02-08T01:13:50.894Z,13.15
2019-02-08T01:16:19.886Z,12.23
2019-02-08T01:18:49.162Z,12.33
2019-02-08T01:21:18.288Z,11.95
2019-02-08T01:23:47.296Z,12.47
2019-02-08T01:26:16.360Z,11.80
2019-02-08T01:28:48.017Z,13.43
2019-02-08T01:31:17.022Z,12.07
2019-02-08T01:33:46.025Z,12.95
2019-02-08T01:36:15.163Z,12.23
2019-02-08T01:38:44.334Z,12.45
2019-02-08T01:41:13.424Z,11.53
2019-02-08T01:43:42.373Z,12.58
2019-02-08T01:46:11.250Z,11.50
2019-02-08T01:48:40.574Z,11.50
2019-02-08T01:51:09.640Z,12.45
2019-02-08T01:53:38.496Z,13.85
2019-02-08T01:56:07.387Z,12.25
2019-02-08T01:58:36.486Z,12.05
2019-02-08T02:01:05.796Z,12.07
2019-02-08T02:03:34.713Z,11.20
2019-02-08T02:06:03.799Z,12.85
2019-02-08T02:08:32.802Z,11.70
2019-02-08T02:11:01.767Z,11.90
2019-02-08T02:13:30.641Z,11.28
2019-02-08T02:15:59.829Z,10.75
2019-02-08T02:18:28.692Z,12.47
2019-02-08T02:20:57.629Z,12.25
2019-02-08T02:23:26.693Z,10.70
2019-02-08T02:25:55.826Z,10.32
2019-02-08T02:28:24.720Z,11.78
2019-02-08T02:30:53.603Z,11.22
2019-02-08T02:33:22.631Z,11.60
2019-02-08T02:35:51.500Z,11.35
2019-02-08T02:38:20.482Z,11.83
2019-02-08T02:40:49.726Z,12.15
2019-02-08T02:43:18.689Z,11.90
2019-02-08T02:45:47.632Z,11.75
2019-02-08T02:48:16.573Z,13.03
2019-02-08T02:50:45.668Z,12.65
2019-02-08T02:53:16.671Z,11.97
2019-02-08T02:55:45.762Z,10.80
2019-02-08T02:58:14.788Z,12.30
2019-02-08T03:00:45.626Z,11.60
2019-02-08T03:03:16.131Z,11.35
2019-02-08T03:05:45.645Z,12.40
2019-02-08T03:08:16.556Z,12.33
2019-02-08T03:10:46.022Z,10.82
2019-02-08T03:13:15.229Z,10.90
2019-02-08T03:15:44.383Z,11.15
2019-02-08T03:18:13.605Z,10.10
2019-02-08T03:20:43.073Z,10.95
2019-02-08T03:23:12.326Z,11.60
2019-02-08T03:25:41.702Z,10.10
2019-02-08T03:28:10.790Z,10.50
2019-02-08T03:30:44.081Z,10.38
2019-02-08T03:33:13.329Z,10.38
2019-02-08T03:35:42.316Z,10.80
2019-02-08T03:38:11.530Z,10.08
2019-02-08T03:40:40.997Z,9.73
2019-02-08T03:43:10.320Z,11.25
2019-02-08T03:45:41.360Z,10.48
2019-02-08T03:48:12.369Z,10.85
2019-02-08T03:50:41.477Z,11.68
2019-02-08T03:53:11.360Z,10.88
2019-02-08T03:55:40.426Z,10.40
2019-02-08T03:58:10.295Z,10.63
2019-02-08T04:00:56.084Z,10.68
2019-02-08T04:03:24.993Z,11.90
2019-02-08T04:05:54.139Z,10.30
2019-02-08T04:08:23.109Z,11.60
2019-02-08T04:10:52.166Z,9.95
2019-02-08T04:13:21.265Z,10.68
2019-02-08T04:15:50.434Z,10.65
2019-02-08T04:18:19.533Z,10.72
2019-02-08T04:20:48.566Z,9.85
2019-02-08T04:23:21.454Z,10.90
2019-02-08T04:25:51.575Z,9.95
2019-02-08T04:28:20.612Z,10.60
2019-02-08T04:30:49.727Z,10.45
2019-02-08T04:33:18.695Z,7.90
2019-02-08T04:35:48.001Z,10.43
2019-02-08T04:38:18.459Z,10.93
2019-02-08T04:40:47.633Z,10.32
2019-02-08T04:43:16.951Z,10.20
2019-02-08T04:45:45.783Z,10.65
2019-02-08T04:48:14.657Z,10.60
2019-02-08T04:50:46.017Z,10.28
2019-02-08T04:53:15.263Z,8.95
2019-02-08T04:55:44.274Z,10.53
2019-02-08T04:58:13.242Z,10.95
2019-02-08T05:00:42.294Z,10.93
2019-02-08T05:03:11.662Z,9.03
2019-02-08T05:05:40.849Z,10.90
2019-02-08T05:08:09.946Z,9.78
2019-02-08T05:10:39.088Z,9.88
2019-02-08T05:13:08.189Z,9.25
2019-02-08T05:15:37.297Z,7.75
2019-02-08T05:18:09.204Z,11.08
2019-02-08T05:20:38.664Z,10.43
2019-02-08T05:23:07.615Z,10.45
2019-02-08T05:25:36.572Z,11.10
2019-02-08T05:28:05.738Z,9.90
2019-02-08T05:30:35.506Z,10.00
2019-02-08T05:33:04.679Z,9.95
2019-02-08T05:35:33.808Z,9.60
2019-02-08T05:38:06.852Z,9.95
2019-02-08T05:40:35.936Z,10.53
2019-02-08T05:43:05.779Z,9.53
2019-02-08T05:45:34.827Z,9.70
2019-02-08T05:48:04.101Z,8.58
2019-02-08T05:50:33.314Z,8.93
2019-02-08T05:53:03.105Z,8.40
2019-02-08T05:55:32.889Z,8.53
2019-02-08T05:58:02.257Z,9.20
2019-02-08T06:00:42.441Z,9.00
2019-02-08T06:03:11.443Z,9.98
2019-02-08T06:05:40.981Z,9.80
2019-02-08T06:08:10.187Z,8.53
2019-02-08T06:10:39.150Z,9.03
2019-02-08T06:13:09.107Z,10.18
2019-02-08T06:15:38.592Z,8.05
2019-02-08T06:18:09.050Z,9.25
2019-02-08T06:20:38.380Z,9.58
2019-02-08T06:23:07.854Z,9.85
2019-02-08T06:25:37.162Z,8.75
2019-02-08T06:28:07.214Z,9.15
2019-02-08T06:30:37.680Z,9.58
2019-02-08T06:33:07.333Z,9.10
2019-02-08T06:35:36.600Z,9.35
2019-02-08T06:38:06.570Z,8.55
2019-02-08T06:40:36.868Z,9.98
2019-02-08T06:43:06.379Z,9.65
2019-02-08T06:45:35.795Z,9.08
2019-02-08T06:48:05.749Z,9.23
2019-02-08T06:50:34.869Z,9.90
2019-02-08T06:53:03.842Z,9.28
2019-02-08T06:55:32.792Z,9.13
2019-02-08T06:58:08.576Z,8.65
2019-02-08T07:00:46.057Z,9.00
2019-02-08T07:03:41.467Z,9.30
2019-02-08T07:06:18.540Z,8.75
2019-02-08T07:09:15.521Z,8.70
2019-02-08T07:11:57.904Z,9.65
2019-02-08T07:14:44.181Z,9.13
2019-02-08T07:17:34.188Z,9.10
2019-02-08T07:20:11.824Z,9.68
2019-02-08T07:23:03.159Z,10.53
2019-02-08T07:25:49.655Z,9.08
2019-02-08T07:28:33.194Z,7.83
2019-02-08T07:31:13.437Z,9.08
2019-02-08T07:34:01.482Z,9.55
2019-02-08T07:36:37.758Z,8.48
2019-02-08T07:39:14.267Z,8.85
2019-02-08T07:41:52.149Z,8.48
2019-02-08T07:44:31.813Z,9.03
2019-02-08T07:47:26.019Z,8.55
2019-02-08T07:50:17.245Z,8.03
2019-02-08T07:53:17.479Z,8.85
2019-02-08T07:56:02.131Z,8.40
2019-02-08T07:58:53.162Z,7.78
2019-02-08T08:01:44.192Z,8.48
2019-02-08T08:04:35.161Z,11.38
2019-02-08T08:07:26.426Z,8.45
2019-02-08T08:10:21.611Z,9.20
2019-02-08T08:13:15.794Z,6.53
2019-02-08T08:15:53.544Z,7.17
2019-02-08T08:18:54.267Z,6.80
2019-02-08T08:21:54.379Z,7.25
2019-02-08T08:24:42.817Z,6.40
2019-02-08T08:27:17.710Z,6.63
2019-02-08T08:30:03.201Z,6.00
2019-02-08T08:33:00.504Z,6.30
2019-02-08T08:36:10.502Z,5.87
2019-02-08T08:39:09.050Z,6.57
2019-02-08T08:42:16.179Z,5.33
2019-02-08T08:45:27.793Z,6.00
2019-02-08T08:48:32.135Z,5.50
2019-02-08T08:51:57.317Z,6.37
2019-02-08T08:55:07.799Z,5.70
2019-02-08T08:58:19.274Z,4.87
2019-02-08T09:01:47.628Z,5.37
2019-02-08T09:05:02.349Z,5.47
2019-02-08T09:08:07.776Z,5.20
2019-02-08T09:11:23.929Z,5.10
2019-02-08T09:14:24.795Z,5.37
2019-02-08T09:17:21.908Z,4.77
2019-02-08T09:20:36.912Z,4.93
2019-02-08T09:23:40.935Z,5.20
2019-02-08T09:27:09.264Z,4.90
2019-02-08T09:30:09.819Z,4.87
2019-02-08T09:33:13.983Z,4.60
2019-02-08T09:36:18.477Z,4.70
2019-02-08T09:39:16.117Z,5.37
2019-02-08T09:42:11.228Z,4.07
2019-02-08T09:45:24.982Z,4.43
2019-02-08T09:48:42.868Z,5.73
2019-02-08T09:51:47.019Z,4.37
2019-02-08T09:54:50.063Z,4.30
2019-02-08T09:57:36.627Z,4.97
2019-02-08T10:00:53.924Z,4.23
2019-02-08T10:03:43.040Z,5.37
2019-02-08T10:06:53.298Z,3.50
2019-02-08T10:09:59.370Z,4.90
2019-02-08T10:12:57.454Z,5.07
2019-02-08T10:16:01.867Z,4.50
2019-02-08T10:18:55.500Z,3.47
2019-02-08T10:22:04.127Z,3.40
2019-02-08T10:25:21.319Z,3.20
2019-02-08T10:28:40.590Z,3.90
2019-02-08T10:31:55.181Z,4.30
2019-02-08T10:34:59.623Z,3.60
2019-02-08T10:38:07.278Z,4.00
2019-02-08T10:41:13.302Z,3.80
2019-02-08T10:44:14.025Z,3.03
2019-02-08T10:47:19.920Z,5.17
2019-02-08T10:50:31.874Z,4.10
2019-02-08T10:53:41.240Z,3.23
2019-02-08T10:56:39.862Z,4.13
2019-02-08T11:00:05.305Z,4.23
2019-02-08T11:03:19.112Z,3.43
2019-02-08T11:06:26.800Z,4.00
2019-02-08T11:09:36.519Z,3.93
2019-02-08T11:12:32.994Z,3.50
2019-02-08T11:15:49.569Z,4.00
2019-02-08T11:19:10.060Z,3.90
2019-02-08T11:21:38.873Z,4.00
2019-02-08T11:24:08.062Z,3.73
2019-02-08T11:26:37.052Z,3.93
2019-02-08T11:29:06.031Z,3.37
2019-02-08T11:31:35.063Z,3.97
2019-02-08T11:34:04.783Z,3.10
2019-02-08T11:36:33.950Z,3.37
2019-02-08T11:39:02.903Z,3.17
2019-02-08T11:41:31.904Z,3.50
2019-02-08T11:44:01.030Z,3.00
2019-02-08T11:46:30.967Z,3.13
2019-02-08T11:48:59.969Z,4.40
2019-02-08T11:51:28.927Z,3.03
2019-02-08T11:53:58.085Z,2.87
2019-02-08T11:56:30.044Z,2.87
2019-02-08T11:58:57.876Z,3.20
2019-02-08T12:01:28.608Z,3.40
2019-02-08T12:03:57.601Z,3.77
2019-02-08T12:06:26.564Z,4.07
2019-02-08T12:08:55.545Z,2.90
2019-02-08T12:11:24.334Z,3.97
2019-02-08T12:13:53.163Z,3.33
2019-02-08T12:16:21.989Z,4.33
2019-02-08T12:18:51.651Z,3.10
2019-02-08T12:21:23.355Z,4.33
2019-02-08T12:23:52.226Z,3.60
2019-02-08T12:26:21.182Z,3.53
2019-02-08T12:28:50.633Z,3.90
2019-02-08T12:31:19.616Z,4.00
2019-02-08T12:33:48.591Z,4.87
2019-02-08T12:36:17.685Z,3.97
2019-02-08T12:38:46.621Z,3.27
2019-02-08T12:41:25.194Z,4.90
2019-02-08T12:43:54.204Z,3.73
2019-02-08T12:46:29.223Z,5.00
2019-02-08T12:49:13.091Z,4.07
2019-02-08T12:51:42.098Z,2.90
2019-02-08T12:54:11.075Z,3.17
2019-02-08T12:56:45.445Z,3.37
2019-02-08T12:59:10.772Z,2.40
2019-02-08T13:01:40.052Z,2.80
2019-02-08T13:04:09.125Z,4.10
2019-02-08T13:06:38.201Z,4.03
2019-02-08T13:09:10.882Z,3.67
2019-02-08T13:11:39.790Z,3.70
2019-02-08T13:14:08.884Z,2.80
2019-02-08T13:16:37.817Z,3.40
2019-02-08T13:19:06.747Z,2.53
2019-02-08T13:21:35.567Z,3.00
2019-02-08T13:24:04.898Z,3.23
2019-02-08T13:26:34.137Z,3.53
2019-02-08T13:29:02.996Z,3.57
2019-02-08T13:31:31.845Z,3.17
2019-02-08T13:34:00.732Z,3.50
2019-02-08T13:36:29.654Z,3.27
2019-02-08T13:38:58.556Z,3.67
2019-02-08T13:41:27.544Z,3.23
2019-02-08T13:43:56.333Z,3.53
2019-02-08T13:46:25.426Z,3.67
2019-02-08T13:48:54.248Z,3.20
2019-02-08T13:51:23.193Z,4.00
2019-02-08T13:53:52.161Z,3.00
2019-02-08T13:56:20.995Z,3.40
2019-02-08T13:58:52.837Z,3.00
2019-02-08T14:01:25.314Z,3.50
2019-02-08T14:03:54.201Z,3.00
2019-02-08T14:06:23.194Z,3.03
2019-02-08T14:08:52.062Z,3.50
2019-02-08T14:11:20.931Z,3.50
2019-02-08T14:13:49.992Z,3.70
2019-02-08T14:16:18.776Z,3.27
2019-02-08T14:18:47.569Z,3.20
2019-02-08T14:21:16.598Z,3.63
2019-02-08T14:23:45.468Z,2.93
2019-02-08T14:26:14.339Z,3.07
2019-02-08T14:28:43.165Z,3.23
2019-02-08T14:31:11.996Z,3.23
2019-02-08T14:33:40.810Z,3.43
2019-02-08T14:36:09.651Z,2.63
2019-02-08T14:38:38.799Z,3.07
2019-02-08T14:41:07.745Z,2.97
2019-02-08T14:43:36.826Z,2.60
2019-02-08T14:46:05.837Z,3.30
2019-02-08T14:48:34.692Z,2.63
2019-02-08T14:51:03.453Z,3.87
2019-02-08T14:53:32.295Z,2.37
2019-02-08T14:56:01.234Z,3.10
2019-02-08T14:58:29.997Z,2.70
2019-02-08T15:00:59.218Z,3.73
2019-02-08T15:03:28.063Z,2.20
2019-02-08T15:05:57.191Z,2.50
2019-02-08T15:08:26.731Z,2.90
2019-02-08T15:10:55.675Z,4.20
2019-02-08T15:13:24.815Z,3.50
2019-02-08T15:15:53.606Z,3.17
2019-02-08T15:18:22.536Z,3.60
2019-02-08T15:20:51.326Z,2.60
2019-02-08T15:23:20.241Z,2.57
2019-02-08T15:25:49.150Z,2.80
2019-02-08T15:28:17.970Z,2.90
2019-02-08T15:30:46.776Z,2.70
2019-02-08T15:33:15.578Z,3.33
2019-02-08T15:35:44.660Z,2.53
2019-02-08T15:38:13.685Z,3.43
2019-02-08T15:40:48.321Z,2.90
2019-02-08T15:43:18.601Z,3.00
2019-02-08T15:45:51.292Z,2.70
2019-02-08T15:48:20.217Z,1.90
2019-02-08T15:50:49.192Z,2.07
2019-02-08T15:53:18.231Z,2.23
2019-02-08T15:55:49.403Z,2.70
2019-02-08T15:58:18.344Z,2.57
2019-02-08T16:00:47.419Z,5.60
2019-02-08T16:03:16.471Z,3.40
2019-02-08T16:05:45.451Z,4.07
2019-02-08T16:08:14.629Z,3.57
2019-02-08T16:10:43.594Z,3.40
2019-02-08T16:13:12.402Z,3.20
2019-02-08T16:15:41.454Z,3.20
2019-02-08T16:18:10.449Z,4.20
2019-02-08T16:20:39.952Z,5.27
2019-02-08T16:23:09.054Z,4.70
2019-02-08T16:25:38.790Z,4.40
2019-02-08T16:28:07.914Z,3.53
2019-02-08T16:30:37.427Z,4.00
2019-02-08T16:33:09.920Z,2.47
2019-02-08T16:35:39.151Z,4.50
2019-02-08T16:38:08.344Z,4.40
2019-02-08T16:40:37.374Z,4.00
2019-02-08T16:43:06.554Z,3.87
2019-02-08T16:45:36.401Z,4.40
2019-02-08T16:48:07.338Z,3.43
2019-02-08T16:50:36.474Z,4.10
2019-02-08T16:53:06.011Z,4.03
2019-02-08T16:55:35.051Z,3.73
2019-02-08T16:58:07.586Z,4.60
2019-02-08T17:00:36.961Z,5.10
2019-02-08T17:03:08.283Z,3.77
2019-02-08T17:05:37.444Z,4.83
2019-02-08T17:08:06.881Z,5.47
2019-02-08T17:10:35.922Z,4.43
2019-02-08T17:13:06.047Z,4.40
2019-02-08T17:15:35.483Z,3.60
2019-02-08T17:18:04.924Z,3.43
2019-02-08T17:20:39.696Z,7.53
2019-02-08T17:23:08.643Z,5.30
2019-02-08T17:25:38.288Z,4.47
2019-02-08T17:28:13.642Z,3.80
2019-02-08T17:30:43.029Z,4.50
2019-02-08T17:33:12.332Z,3.73
2019-02-08T17:35:41.258Z,4.10
2019-02-08T17:38:14.676Z,4.40
2019-02-08T17:40:48.317Z,4.37
2019-02-08T17:43:17.453Z,3.93
2019-02-08T17:45:46.585Z,5.10
2019-02-08T17:48:16.529Z,5.83
2019-02-08T17:50:45.611Z,5.80
2019-02-08T17:53:16.702Z,5.80
2019-02-08T17:55:58.314Z,5.37
2019-02-08T17:58:27.247Z,5.50
2019-02-08T18:00:58.152Z,6.60
2019-02-08T18:03:27.406Z,7.00
2019-02-08T18:05:56.347Z,6.10
2019-02-08T18:08:25.458Z,4.30
2019-02-08T18:10:54.387Z,3.97
2019-02-08T18:13:35.553Z,4.23
2019-02-08T18:16:02.458Z,4.00
2019-02-08T18:18:31.806Z,4.10
2019-02-08T18:21:03.654Z,4.27
2019-02-08T18:23:33.714Z,6.07
2019-02-08T18:26:02.583Z,4.33
2019-02-08T18:28:31.509Z,4.97
2019-02-08T18:31:00.404Z,4.70
2019-02-08T18:33:30.844Z,5.57
2019-02-08T18:35:59.706Z,5.10
2019-02-08T18:38:28.793Z,4.00
2019-02-08T18:40:57.977Z,6.17
2019-02-08T18:43:27.340Z,5.13
2019-02-08T18:45:56.436Z,5.33
2019-02-08T18:48:25.753Z,4.77
2019-02-08T18:50:55.453Z,4.40
2019-02-08T18:53:24.457Z,4.57
2019-02-08T18:55:53.500Z,5.43
2019-02-08T18:58:24.512Z,4.57
2019-02-08T19:00:53.567Z,4.10
2019-02-08T19:03:23.062Z,3.37
2019-02-08T19:05:52.103Z,4.37
2019-02-08T19:08:21.748Z,3.90
2019-02-08T19:10:50.730Z,4.50
2019-02-08T19:13:49.541Z,4.40
2019-02-08T19:16:14.383Z,4.30
2019-02-08T19:18:43.444Z,3.90
2019-02-08T19:21:12.397Z,4.00
2019-02-08T19:23:41.312Z,3.53
2019-02-08T19:26:16.798Z,4.37
2019-02-08T19:28:49.496Z,5.60
2019-02-08T19:31:18.993Z,4.47
2019-02-08T19:33:48.207Z,4.70
2019-02-08T19:36:17.235Z,5.33
2019-02-08T19:38:48.022Z,5.27
2019-02-08T19:41:16.977Z,4.70
2019-02-08T19:43:45.997Z,4.80
2019-02-08T19:46:14.895Z,5.20
2019-02-08T19:48:44.556Z,4.73
2019-02-08T19:51:14.426Z,4.13
2019-02-08T19:53:43.395Z,4.30
2019-02-08T19:56:12.519Z,4.27
2019-02-08T19:58:41.490Z,4.30
2019-02-08T20:01:10.611Z,4.70
2019-02-08T20:03:39.713Z,5.17
2019-02-08T20:06:09.614Z,6.00
2019-02-08T20:08:38.756Z,6.87
2019-02-08T20:11:07.743Z,4.83
2019-02-08T20:13:39.335Z,5.93
2019-02-08T20:16:08.353Z,4.57
2019-02-08T20:18:37.325Z,4.87
2019-02-08T20:21:06.311Z,4.97
2019-02-08T20:23:35.361Z,4.87
2019-02-08T20:26:04.629Z,3.10
2019-02-08T20:28:33.564Z,4.07
2019-02-08T20:31:02.707Z,4.83
2019-02-08T20:33:31.589Z,4.90
2019-02-08T20:36:00.538Z,5.03
2019-02-08T20:38:29.390Z,4.67
2019-02-08T20:40:58.310Z,3.67
2019-02-08T20:43:27.623Z,4.07
2019-02-08T20:45:56.603Z,4.10
2019-02-08T20:48:25.557Z,4.37
2019-02-08T20:50:54.746Z,4.60
2019-02-08T20:53:23.998Z,3.70
2019-02-08T20:55:53.511Z,5.70
2019-02-08T20:58:22.602Z,5.07
2019-02-08T21:00:53.204Z,5.10
2019-02-08T21:03:23.665Z,5.17
2019-02-08T21:05:52.800Z,4.80
2019-02-08T21:08:22.118Z,5.30
2019-02-08T21:10:51.296Z,4.03
2019-02-08T21:13:20.407Z,5.33
2019-02-08T21:15:49.834Z,5.13
2019-02-08T21:18:19.323Z,4.83
2019-02-08T21:20:49.076Z,4.30
2019-02-08T21:23:18.289Z,3.80
2019-02-08T21:25:52.138Z,4.80
2019-02-08T21:28:18.314Z,4.63
2019-02-08T21:30:49.540Z,3.90
2019-02-08T21:33:18.978Z,4.63
2019-02-08T21:35:49.546Z,3.77
2019-02-08T21:38:18.821Z,3.57
2019-02-08T21:40:47.820Z,4.00
2019-02-08T21:43:17.427Z,3.97
2019-02-08T21:45:46.451Z,4.07
2019-02-08T21:48:15.541Z,3.60
2019-02-08T21:50:44.665Z,4.00
2019-02-08T21:53:13.817Z,4.93
2019-02-08T21:55:42.942Z,4.47
2019-02-08T21:58:11.977Z,3.43
2019-02-08T22:00:42.206Z,4.43
2019-02-08T22:03:13.114Z,4.53
2019-02-08T22:05:46.397Z,4.47
2019-02-08T22:08:15.670Z,5.10
2019-02-08T22:10:45.109Z,4.43
2019-02-08T22:13:14.242Z,4.63
2019-02-08T22:15:43.215Z,4.37
2019-02-08T22:18:22.134Z,4.40
2019-02-08T22:20:55.720Z,5.30
2019-02-08T22:23:25.086Z,3.80
2019-02-08T22:25:54.024Z,4.93
2019-02-08T22:28:23.391Z,5.33
2019-02-08T22:30:52.397Z,5.00
2019-02-08T22:33:23.920Z,6.20
2019-02-08T22:36:06.035Z,4.90
2019-02-08T22:38:35.314Z,5.10
2019-02-08T22:41:04.573Z,5.83
2019-02-08T22:43:39.729Z,5.83
2019-02-08T22:46:08.674Z,5.57
2019-02-08T22:48:37.972Z,7.80
2019-02-08T22:51:07.057Z,5.97
2019-02-08T22:53:36.052Z,5.13
2019-02-08T22:56:05.774Z,6.00
2019-02-08T22:58:43.878Z,4.80
2019-02-08T23:01:32.614Z,5.97
2019-02-08T23:04:02.706Z,5.10
2019-02-08T23:06:31.695Z,5.60
2019-02-08T23:09:00.725Z,4.53
2019-02-08T23:11:29.954Z,5.90
2019-02-08T23:13:59.034Z,6.60
2019-02-08T23:16:27.891Z,5.80
2019-02-08T23:18:57.174Z,5.60
2019-02-08T23:21:26.228Z,5.25
2019-02-08T23:23:55.072Z,5.53
2019-02-08T23:26:23.871Z,4.63
2019-02-08T23:31:33.713Z,4.77
2019-02-08T23:34:14.897Z,5.63
2019-02-08T23:36:55.405Z,5.60
2019-02-08T23:39:36.544Z,4.50
2019-02-08T23:42:17.475Z,4.80
2019-02-08T23:44:58.121Z,4.77
2019-02-08T23:47:39.475Z,4.20
2019-02-08T23:50:20.063Z,4.87
2019-02-08T23:53:00.672Z,4.67
2019-02-08T23:55:41.815Z,4.30
2019-02-08T23:58:22.381Z,5.30
